sensor_id;sensor_type;location;lat;lon;timestamp;temperature;humidity
33715;DHT22;20043;50.998;4.754;2022-08-19T00:00:15;20.00;99.90
33715;DHT22;20043;50.998;4.754;2022-08-19T00:02:42;20.00;99.90
33715;DHT22;20043;50.998;4.754;2022-08-19T00:05:09;20.00;99.90
33715;DHT22;20043;50.998;4.754;2022-08-19T00:07:35;20.00;99.90
33715;DHT22;20043;50.998;4.754;2022-08-19T00:10:01;19.90;99.90
33715;DHT22;20043;50.998;4.754;2022-08-19T00:12:27;19.90;99.90
33715;DHT22;20043;50.998;4.754;2022-08-19T00:14:52;20.00;99.90
33715;DHT22;20043;50.998;4.754;2022-08-19T00:17:20;20.00;99.90
33715;DHT22;20043;50.998;4.754;2022-08-19T00:19:46;20.10;99.90
33715;DHT22;20043;50.998;4.754;2022-08-19T00:22:11;20.00;99.90
33715;DHT22;20043;50.998;4.754;2022-08-19T00:24:37;19.90;99.90
33715;DHT22;20043;50.998;4.754;2022-08-19T00:27:04;20.00;99.90
33715;DHT22;20043;50.998;4.754;2022-08-19T00:29:30;20.00;99.90
33715;DHT22;20043;50.998;4.754;2022-08-19T00:31:57;20.10;99.90
33715;DHT22;20043;50.998;4.754;2022-08-19T00:34:24;20.10;99.90
33715;DHT22;20043;50.998;4.754;2022-08-19T00:36:51;20.20;99.90
33715;DHT22;20043;50.998;4.754;2022-08-19T00:39:17;20.30;99.90
33715;DHT22;20043;50.998;4.754;2022-08-19T00:41:44;20.30;99.90
33715;DHT22;20043;50.998;4.754;2022-08-19T00:44:19;20.20;99.90
33715;DHT22;20043;50.998;4.754;2022-08-19T00:46:47;20.10;99.90
33715;DHT22;20043;50.998;4.754;2022-08-19T00:49:20;20.10;99.90
33715;DHT22;20043;50.998;4.754;2022-08-19T00:51:51;20.10;99.90
33715;DHT22;20043;50.998;4.754;2022-08-19T00:54:18;20.10;99.90
33715;DHT22;20043;50.998;4.754;2022-08-19T00:56:45;20.20;99.90
33715;DHT22;20043;50.998;4.754;2022-08-19T00:59:11;20.10;99.90
33715;DHT22;20043;50.998;4.754;2022-08-19T01:01:39;20.10;99.90
33715;DHT22;20043;50.998;4.754;2022-08-19T01:04:06;20.20;99.90
33715;DHT22;20043;50.998;4.754;2022-08-19T01:06:33;20.20;99.90
33715;DHT22;20043;50.998;4.754;2022-08-19T01:09:00;20.10;99.90
33715;DHT22;20043;50.998;4.754;2022-08-19T01:11:27;20.00;99.90
33715;DHT22;20043;50.998;4.754;2022-08-19T01:13:54;19.90;99.90
33715;DHT22;20043;50.998;4.754;2022-08-19T01:16:22;19.90;99.90
33715;DHT22;20043;50.998;4.754;2022-08-19T01:18:49;20.00;99.90
33715;DHT22;20043;50.998;4.754;2022-08-19T01:21:22;20.00;99.90
33715;DHT22;20043;50.998;4.754;2022-08-19T01:23:50;20.00;99.90
33715;DHT22;20043;50.998;4.754;2022-08-19T01:26:18;20.00;99.90
33715;DHT22;20043;50.998;4.754;2022-08-19T01:28:48;20.10;99.90
33715;DHT22;20043;50.998;4.754;2022-08-19T01:31:18;20.20;99.90
33715;DHT22;20043;50.998;4.754;2022-08-19T01:33:46;20.20;99.90
33715;DHT22;20043;50.998;4.754;2022-08-19T01:36:15;20.20;99.90
33715;DHT22;20043;50.998;4.754;2022-08-19T01:38:43;20.20;99.90
33715;DHT22;20043;50.998;4.754;2022-08-19T01:41:10;20.10;99.90
33715;DHT22;20043;50.998;4.754;2022-08-19T01:43:36;20.10;99.90
33715;DHT22;20043;50.998;4.754;2022-08-19T01:46:02;20.20;99.90
33715;DHT22;20043;50.998;4.754;2022-08-19T01:48:36;20.10;99.90
33715;DHT22;20043;50.998;4.754;2022-08-19T01:51:03;20.00;99.90
33715;DHT22;20043;50.998;4.754;2022-08-19T01:53:29;20.00;99.90
33715;DHT22;20043;50.998;4.754;2022-08-19T01:55:55;20.00;99.90
33715;DHT22;20043;50.998;4.754;2022-08-19T01:58:24;19.90;99.90
33715;DHT22;20043;50.998;4.754;2022-08-19T02:00:51;19.90;99.90
33715;DHT22;20043;50.998;4.754;2022-08-19T02:03:17;19.90;99.90
33715;DHT22;20043;50.998;4.754;2022-08-19T02:05:43;19.80;99.90
33715;DHT22;20043;50.998;4.754;2022-08-19T02:08:09;19.80;99.90
33715;DHT22;20043;50.998;4.754;2022-08-19T02:10:39;19.80;99.90
33715;DHT22;20043;50.998;4.754;2022-08-19T02:13:05;19.80;99.90
33715;DHT22;20043;50.998;4.754;2022-08-19T02:15:31;19.80;99.90
33715;DHT22;20043;50.998;4.754;2022-08-19T02:17:57;19.80;99.90
33715;DHT22;20043;50.998;4.754;2022-08-19T02:20:23;19.90;99.90
33715;DHT22;20043;50.998;4.754;2022-08-19T02:22:49;19.90;99.90
33715;DHT22;20043;50.998;4.754;2022-08-19T02:25:15;19.80;99.90
33715;DHT22;20043;50.998;4.754;2022-08-19T02:27:41;19.80;99.90
33715;DHT22;20043;50.998;4.754;2022-08-19T02:30:10;19.80;99.90
33715;DHT22;20043;50.998;4.754;2022-08-19T02:32:36;19.80;99.90
33715;DHT22;20043;50.998;4.754;2022-08-19T02:35:02;19.90;99.90
33715;DHT22;20043;50.998;4.754;2022-08-19T02:37:28;19.90;99.90
33715;DHT22;20043;50.998;4.754;2022-08-19T02:40:12;19.80;99.90
33715;DHT22;20043;50.998;4.754;2022-08-19T02:42:38;19.80;99.90
33715;DHT22;20043;50.998;4.754;2022-08-19T02:45:06;19.80;99.90
33715;DHT22;20043;50.998;4.754;2022-08-19T02:47:33;19.90;99.90
33715;DHT22;20043;50.998;4.754;2022-08-19T02:50:01;19.90;99.90
33715;DHT22;20043;50.998;4.754;2022-08-19T02:52:27;19.80;99.90
33715;DHT22;20043;50.998;4.754;2022-08-19T02:54:53;19.80;99.90
33715;DHT22;20043;50.998;4.754;2022-08-19T02:57:22;19.80;99.90
33715;DHT22;20043;50.998;4.754;2022-08-19T02:59:48;19.70;99.90
33715;DHT22;20043;50.998;4.754;2022-08-19T03:02:13;19.70;99.90
33715;DHT22;20043;50.998;4.754;2022-08-19T03:04:39;19.70;99.90
33715;DHT22;20043;50.998;4.754;2022-08-19T03:07:05;19.70;99.90
33715;DHT22;20043;50.998;4.754;2022-08-19T03:09:30;19.60;99.90
33715;DHT22;20043;50.998;4.754;2022-08-19T03:11:56;19.50;99.90
33715;DHT22;20043;50.998;4.754;2022-08-19T03:14:21;19.60;99.90
33715;DHT22;20043;50.998;4.754;2022-08-19T03:16:51;19.60;99.90
33715;DHT22;20043;50.998;4.754;2022-08-19T03:19:18;19.50;99.90
33715;DHT22;20043;50.998;4.754;2022-08-19T03:21:45;19.60;99.90
33715;DHT22;20043;50.998;4.754;2022-08-19T03:24:12;19.70;99.90
33715;DHT22;20043;50.998;4.754;2022-08-19T03:26:40;19.60;99.90
33715;DHT22;20043;50.998;4.754;2022-08-19T03:29:08;19.50;99.90
33715;DHT22;20043;50.998;4.754;2022-08-19T03:31:37;19.50;99.90
33715;DHT22;20043;50.998;4.754;2022-08-19T03:34:03;19.50;99.90
33715;DHT22;20043;50.998;4.754;2022-08-19T03:36:29;19.40;99.90
33715;DHT22;20043;50.998;4.754;2022-08-19T03:38:57;19.40;99.90
33715;DHT22;20043;50.998;4.754;2022-08-19T03:41:26;19.30;99.90
33715;DHT22;20043;50.998;4.754;2022-08-19T03:43:52;19.30;99.90
33715;DHT22;20043;50.998;4.754;2022-08-19T03:46:21;19.30;99.90
33715;DHT22;20043;50.998;4.754;2022-08-19T03:48:49;19.30;99.90
33715;DHT22;20043;50.998;4.754;2022-08-19T03:51:22;19.30;99.90
33715;DHT22;20043;50.998;4.754;2022-08-19T03:53:48;19.30;99.90
33715;DHT22;20043;50.998;4.754;2022-08-19T03:56:14;19.20;99.90
33715;DHT22;20043;50.998;4.754;2022-08-19T03:58:40;19.20;99.90
33715;DHT22;20043;50.998;4.754;2022-08-19T04:01:12;19.20;99.90
33715;DHT22;20043;50.998;4.754;2022-08-19T04:03:39;19.10;99.90
33715;DHT22;20043;50.998;4.754;2022-08-19T04:06:13;19.20;99.90
33715;DHT22;20043;50.998;4.754;2022-08-19T04:08:44;19.20;99.90
33715;DHT22;20043;50.998;4.754;2022-08-19T04:11:12;19.20;99.90
33715;DHT22;20043;50.998;4.754;2022-08-19T04:13:39;19.30;99.90
33715;DHT22;20043;50.998;4.754;2022-08-19T04:16:06;19.20;99.90
33715;DHT22;20043;50.998;4.754;2022-08-19T04:18:33;19.20;99.90
33715;DHT22;20043;50.998;4.754;2022-08-19T04:20:59;19.30;99.90
33715;DHT22;20043;50.998;4.754;2022-08-19T04:23:26;19.30;99.90
33715;DHT22;20043;50.998;4.754;2022-08-19T04:25:53;19.30;99.90
33715;DHT22;20043;50.998;4.754;2022-08-19T04:28:19;19.20;99.90
33715;DHT22;20043;50.998;4.754;2022-08-19T04:30:47;19.20;99.90
33715;DHT22;20043;50.998;4.754;2022-08-19T04:33:14;19.10;99.90
33715;DHT22;20043;50.998;4.754;2022-08-19T04:35:49;19.00;99.90
33715;DHT22;20043;50.998;4.754;2022-08-19T04:38:18;19.00;99.90
33715;DHT22;20043;50.998;4.754;2022-08-19T04:40:46;19.00;99.90
33715;DHT22;20043;50.998;4.754;2022-08-19T04:43:31;19.00;99.90
33715;DHT22;20043;50.998;4.754;2022-08-19T04:45:57;19.00;99.90
33715;DHT22;20043;50.998;4.754;2022-08-19T04:48:23;19.10;99.90
33715;DHT22;20043;50.998;4.754;2022-08-19T04:50:53;19.00;99.90
33715;DHT22;20043;50.998;4.754;2022-08-19T04:53:24;19.10;99.90
33715;DHT22;20043;50.998;4.754;2022-08-19T04:55:50;19.20;99.90
33715;DHT22;20043;50.998;4.754;2022-08-19T04:58:17;19.30;99.90
33715;DHT22;20043;50.998;4.754;2022-08-19T05:00:43;19.40;99.90
33715;DHT22;20043;50.998;4.754;2022-08-19T05:03:09;19.40;99.90
33715;DHT22;20043;50.998;4.754;2022-08-19T05:05:39;19.40;99.90
33715;DHT22;20043;50.998;4.754;2022-08-19T05:08:05;19.40;99.90
33715;DHT22;20043;50.998;4.754;2022-08-19T05:10:31;19.40;99.90
33715;DHT22;20043;50.998;4.754;2022-08-19T05:12:56;19.30;99.90
33715;DHT22;20043;50.998;4.754;2022-08-19T05:15:22;19.30;99.90
33715;DHT22;20043;50.998;4.754;2022-08-19T05:17:48;19.30;99.90
33715;DHT22;20043;50.998;4.754;2022-08-19T05:20:32;19.30;99.90
33715;DHT22;20043;50.998;4.754;2022-08-19T05:23:16;19.30;99.90
33715;DHT22;20043;50.998;4.754;2022-08-19T05:25:42;19.30;99.90
33715;DHT22;20043;50.998;4.754;2022-08-19T05:28:08;19.40;99.90
33715;DHT22;20043;50.998;4.754;2022-08-19T05:30:33;19.30;99.90
33715;DHT22;20043;50.998;4.754;2022-08-19T05:32:59;19.30;99.90
33715;DHT22;20043;50.998;4.754;2022-08-19T05:35:25;19.40;99.90
33715;DHT22;20043;50.998;4.754;2022-08-19T05:37:51;19.40;99.90
33715;DHT22;20043;50.998;4.754;2022-08-19T05:40:19;19.50;99.90
33715;DHT22;20043;50.998;4.754;2022-08-19T05:42:45;19.60;99.90
33715;DHT22;20043;50.998;4.754;2022-08-19T05:45:11;19.70;99.90
33715;DHT22;20043;50.998;4.754;2022-08-19T05:47:37;19.90;99.90
33715;DHT22;20043;50.998;4.754;2022-08-19T05:50:03;19.90;99.90
33715;DHT22;20043;50.998;4.754;2022-08-19T05:52:29;20.00;99.90
33715;DHT22;20043;50.998;4.754;2022-08-19T05:54:55;20.00;99.90
33715;DHT22;20043;50.998;4.754;2022-08-19T05:57:21;19.90;99.90
33715;DHT22;20043;50.998;4.754;2022-08-19T05:59:47;20.00;99.90
33715;DHT22;20043;50.998;4.754;2022-08-19T06:02:16;20.00;99.90
33715;DHT22;20043;50.998;4.754;2022-08-19T06:04:42;20.10;99.90
33715;DHT22;20043;50.998;4.754;2022-08-19T06:07:08;20.10;99.90
33715;DHT22;20043;50.998;4.754;2022-08-19T06:09:34;20.10;99.90
33715;DHT22;20043;50.998;4.754;2022-08-19T06:12:00;20.10;99.90
33715;DHT22;20043;50.998;4.754;2022-08-19T06:14:33;20.20;99.90
33715;DHT22;20043;50.998;4.754;2022-08-19T06:17:00;20.30;99.90
33715;DHT22;20043;50.998;4.754;2022-08-19T06:19:28;20.40;99.90
33715;DHT22;20043;50.998;4.754;2022-08-19T06:21:56;20.40;99.90
33715;DHT22;20043;50.998;4.754;2022-08-19T06:24:23;20.50;99.90
33715;DHT22;20043;50.998;4.754;2022-08-19T06:26:51;20.50;99.90
33715;DHT22;20043;50.998;4.754;2022-08-19T06:29:21;20.50;99.90
33715;DHT22;20043;50.998;4.754;2022-08-19T06:31:48;20.50;99.90
33715;DHT22;20043;50.998;4.754;2022-08-19T06:34:15;20.50;99.90
33715;DHT22;20043;50.998;4.754;2022-08-19T06:36:43;20.50;99.90
33715;DHT22;20043;50.998;4.754;2022-08-19T06:39:11;20.60;99.90
33715;DHT22;20043;50.998;4.754;2022-08-19T06:41:43;20.60;99.90
33715;DHT22;20043;50.998;4.754;2022-08-19T06:44:10;20.70;99.90
33715;DHT22;20043;50.998;4.754;2022-08-19T06:46:37;20.70;99.90
33715;DHT22;20043;50.998;4.754;2022-08-19T06:49:03;20.60;99.90
33715;DHT22;20043;50.998;4.754;2022-08-19T06:51:29;20.70;99.90
33715;DHT22;20043;50.998;4.754;2022-08-19T06:53:57;20.60;99.90
33715;DHT22;20043;50.998;4.754;2022-08-19T06:56:26;20.50;99.90
33715;DHT22;20043;50.998;4.754;2022-08-19T06:59:00;20.50;99.90
33715;DHT22;20043;50.998;4.754;2022-08-19T07:01:26;20.50;99.90
33715;DHT22;20043;50.998;4.754;2022-08-19T07:03:51;20.50;99.90
33715;DHT22;20043;50.998;4.754;2022-08-19T07:06:18;20.50;99.90
33715;DHT22;20043;50.998;4.754;2022-08-19T07:08:46;20.50;99.90
33715;DHT22;20043;50.998;4.754;2022-08-19T07:11:14;20.50;99.90
33715;DHT22;20043;50.998;4.754;2022-08-19T07:13:41;20.50;99.90
33715;DHT22;20043;50.998;4.754;2022-08-19T07:16:11;20.50;99.90
33715;DHT22;20043;50.998;4.754;2022-08-19T07:18:38;20.60;99.90
33715;DHT22;20043;50.998;4.754;2022-08-19T07:21:22;20.60;99.90
33715;DHT22;20043;50.998;4.754;2022-08-19T07:23:49;20.70;99.90
33715;DHT22;20043;50.998;4.754;2022-08-19T07:26:22;20.90;99.90
33715;DHT22;20043;50.998;4.754;2022-08-19T07:28:49;20.90;99.90
33715;DHT22;20043;50.998;4.754;2022-08-19T07:31:18;20.90;99.90
33715;DHT22;20043;50.998;4.754;2022-08-19T07:33:46;20.90;99.90
33715;DHT22;20043;50.998;4.754;2022-08-19T07:36:15;21.00;99.90
33715;DHT22;20043;50.998;4.754;2022-08-19T07:38:43;21.20;99.90
33715;DHT22;20043;50.998;4.754;2022-08-19T07:41:12;21.30;99.90
33715;DHT22;20043;50.998;4.754;2022-08-19T07:43:39;21.60;99.90
33715;DHT22;20043;50.998;4.754;2022-08-19T07:46:05;21.80;99.90
33715;DHT22;20043;50.998;4.754;2022-08-19T07:48:40;21.80;99.90
33715;DHT22;20043;50.998;4.754;2022-08-19T07:51:07;22.00;99.90
33715;DHT22;20043;50.998;4.754;2022-08-19T07:53:34;22.00;99.90
33715;DHT22;20043;50.998;4.754;2022-08-19T07:56:01;22.00;99.90
33715;DHT22;20043;50.998;4.754;2022-08-19T07:58:38;22.00;99.90
33715;DHT22;20043;50.998;4.754;2022-08-19T08:01:05;22.00;99.90
33715;DHT22;20043;50.998;4.754;2022-08-19T08:03:31;22.10;99.90
33715;DHT22;20043;50.998;4.754;2022-08-19T08:06:16;22.10;99.90
33715;DHT22;20043;50.998;4.754;2022-08-19T08:09:02;22.10;99.90
33715;DHT22;20043;50.998;4.754;2022-08-19T08:11:46;22.20;99.90
33715;DHT22;20043;50.998;4.754;2022-08-19T08:14:27;22.40;99.90
33715;DHT22;20043;50.998;4.754;2022-08-19T08:17:01;22.40;99.90
33715;DHT22;20043;50.998;4.754;2022-08-19T08:19:27;22.70;99.90
33715;DHT22;20043;50.998;4.754;2022-08-19T08:21:58;22.90;99.90
33715;DHT22;20043;50.998;4.754;2022-08-19T08:24:26;23.10;99.90
33715;DHT22;20043;50.998;4.754;2022-08-19T08:26:52;22.90;99.90
33715;DHT22;20043;50.998;4.754;2022-08-19T08:29:18;22.80;99.90
33715;DHT22;20043;50.998;4.754;2022-08-19T08:31:45;23.00;99.90
33715;DHT22;20043;50.998;4.754;2022-08-19T08:34:13;23.20;99.90
33715;DHT22;20043;50.998;4.754;2022-08-19T08:36:42;23.20;99.90
33715;DHT22;20043;50.998;4.754;2022-08-19T08:39:12;23.20;99.90
33715;DHT22;20043;50.998;4.754;2022-08-19T08:42:08;23.30;99.90
33715;DHT22;20043;50.998;4.754;2022-08-19T08:44:48;23.20;99.90
33715;DHT22;20043;50.998;4.754;2022-08-19T08:47:18;23.30;99.90
33715;DHT22;20043;50.998;4.754;2022-08-19T08:52:26;23.20;99.90
33715;DHT22;20043;50.998;4.754;2022-08-19T08:54:57;23.30;99.90
33715;DHT22;20043;50.998;4.754;2022-08-19T08:57:26;23.30;99.90
33715;DHT22;20043;50.998;4.754;2022-08-19T08:59:53;23.40;99.90
33715;DHT22;20043;50.998;4.754;2022-08-19T09:02:20;23.70;99.90
33715;DHT22;20043;50.998;4.754;2022-08-19T09:04:46;23.90;99.90
33715;DHT22;20043;50.998;4.754;2022-08-19T09:10:38;24.20;99.90
33715;DHT22;20043;50.998;4.754;2022-08-19T09:15:48;24.30;99.90
33715;DHT22;20043;50.998;4.754;2022-08-19T09:18:16;24.30;99.90
33715;DHT22;20043;50.998;4.754;2022-08-19T09:20:42;24.20;99.90
33715;DHT22;20043;50.998;4.754;2022-08-19T09:23:08;23.90;99.90
33715;DHT22;20043;50.998;4.754;2022-08-19T09:25:34;23.80;99.90
33715;DHT22;20043;50.998;4.754;2022-08-19T09:28:00;23.80;99.90
33715;DHT22;20043;50.998;4.754;2022-08-19T09:30:33;23.90;99.90
33715;DHT22;20043;50.998;4.754;2022-08-19T09:33:00;24.00;99.90
33715;DHT22;20043;50.998;4.754;2022-08-19T09:35:27;24.10;99.90
33715;DHT22;20043;50.998;4.754;2022-08-19T09:37:54;24.30;99.90
33715;DHT22;20043;50.998;4.754;2022-08-19T09:40:20;24.40;99.90
33715;DHT22;20043;50.998;4.754;2022-08-19T09:42:46;24.30;99.90
33715;DHT22;20043;50.998;4.754;2022-08-19T09:45:14;24.20;99.90
33715;DHT22;20043;50.998;4.754;2022-08-19T09:47:39;24.10;99.90
33715;DHT22;20043;50.998;4.754;2022-08-19T09:50:07;23.80;99.90
33715;DHT22;20043;50.998;4.754;2022-08-19T09:52:33;23.80;99.90
33715;DHT22;20043;50.998;4.754;2022-08-19T09:55:03;23.70;99.90
33715;DHT22;20043;50.998;4.754;2022-08-19T09:57:29;23.70;99.90
33715;DHT22;20043;50.998;4.754;2022-08-19T09:59:55;23.70;99.90
33715;DHT22;20043;50.998;4.754;2022-08-19T10:02:20;23.60;99.90
33715;DHT22;20043;50.998;4.754;2022-08-19T10:04:46;23.50;99.90
33715;DHT22;20043;50.998;4.754;2022-08-19T10:07:30;23.40;99.90
33715;DHT22;20043;50.998;4.754;2022-08-19T10:09:56;23.40;99.90
33715;DHT22;20043;50.998;4.754;2022-08-19T10:12:22;23.40;99.90
33715;DHT22;20043;50.998;4.754;2022-08-19T10:14:48;23.40;99.90
33715;DHT22;20043;50.998;4.754;2022-08-19T10:17:13;23.50;99.90
33715;DHT22;20043;50.998;4.754;2022-08-19T10:19:40;23.50;99.90
33715;DHT22;20043;50.998;4.754;2022-08-19T10:22:06;23.50;99.90
33715;DHT22;20043;50.998;4.754;2022-08-19T10:24:33;23.60;99.90
33715;DHT22;20043;50.998;4.754;2022-08-19T10:27:01;23.70;99.90
33715;DHT22;20043;50.998;4.754;2022-08-19T10:29:29;23.80;99.90
33715;DHT22;20043;50.998;4.754;2022-08-19T10:31:55;23.90;99.90
33715;DHT22;20043;50.998;4.754;2022-08-19T10:34:23;24.00;99.90
33715;DHT22;20043;50.998;4.754;2022-08-19T10:36:48;24.00;99.90
33715;DHT22;20043;50.998;4.754;2022-08-19T10:39:14;24.00;99.90
33715;DHT22;20043;50.998;4.754;2022-08-19T10:41:40;23.90;99.90
33715;DHT22;20043;50.998;4.754;2022-08-19T10:44:10;24.00;99.90
33715;DHT22;20043;50.998;4.754;2022-08-19T10:46:42;24.10;99.90
33715;DHT22;20043;50.998;4.754;2022-08-19T10:49:10;24.30;99.90
33715;DHT22;20043;50.998;4.754;2022-08-19T10:51:37;24.40;99.90
33715;DHT22;20043;50.998;4.754;2022-08-19T10:54:22;24.50;99.90
33715;DHT22;20043;50.998;4.754;2022-08-19T10:56:48;24.80;99.90
33715;DHT22;20043;50.998;4.754;2022-08-19T10:59:21;24.90;99.90
33715;DHT22;20043;50.998;4.754;2022-08-19T11:01:48;24.90;99.90
33715;DHT22;20043;50.998;4.754;2022-08-19T11:04:15;24.90;99.90
33715;DHT22;20043;50.998;4.754;2022-08-19T11:06:46;25.10;99.90
33715;DHT22;20043;50.998;4.754;2022-08-19T11:09:14;25.20;99.90
33715;DHT22;20043;50.998;4.754;2022-08-19T11:11:41;25.40;99.90
33715;DHT22;20043;50.998;4.754;2022-08-19T11:14:08;25.50;99.90
33715;DHT22;20043;50.998;4.754;2022-08-19T11:16:35;25.70;99.90
33715;DHT22;20043;50.998;4.754;2022-08-19T11:19:03;25.90;99.90
33715;DHT22;20043;50.998;4.754;2022-08-19T11:21:32;25.90;99.90
33715;DHT22;20043;50.998;4.754;2022-08-19T11:24:00;26.00;99.90
33715;DHT22;20043;50.998;4.754;2022-08-19T11:26:27;26.20;99.90
33715;DHT22;20043;50.998;4.754;2022-08-19T11:28:53;26.40;99.90
33715;DHT22;20043;50.998;4.754;2022-08-19T11:31:22;26.40;99.90
33715;DHT22;20043;50.998;4.754;2022-08-19T11:33:48;26.30;99.90
33715;DHT22;20043;50.998;4.754;2022-08-19T11:36:18;26.10;99.90
33715;DHT22;20043;50.998;4.754;2022-08-19T11:38:45;25.90;99.90
33715;DHT22;20043;50.998;4.754;2022-08-19T11:41:10;25.60;99.90
33715;DHT22;20043;50.998;4.754;2022-08-19T11:43:37;25.50;99.90
33715;DHT22;20043;50.998;4.754;2022-08-19T11:46:07;25.40;99.90
33715;DHT22;20043;50.998;4.754;2022-08-19T11:48:34;25.40;99.90
33715;DHT22;20043;50.998;4.754;2022-08-19T11:51:04;25.20;99.90
33715;DHT22;20043;50.998;4.754;2022-08-19T11:53:31;25.20;99.90
33715;DHT22;20043;50.998;4.754;2022-08-19T11:55:57;25.20;99.90
33715;DHT22;20043;50.998;4.754;2022-08-19T11:58:23;25.20;99.90
33715;DHT22;20043;50.998;4.754;2022-08-19T12:00:51;25.20;99.90
33715;DHT22;20043;50.998;4.754;2022-08-19T12:03:16;25.10;99.90
33715;DHT22;20043;50.998;4.754;2022-08-19T12:05:43;25.10;99.90
33715;DHT22;20043;50.998;4.754;2022-08-19T12:08:17;25.00;99.90
33715;DHT22;20043;50.998;4.754;2022-08-19T12:10:56;24.90;99.90
33715;DHT22;20043;50.998;4.754;2022-08-19T12:13:22;24.90;99.90
33715;DHT22;20043;50.998;4.754;2022-08-19T12:15:48;24.90;99.90
33715;DHT22;20043;50.998;4.754;2022-08-19T12:18:14;24.80;99.90
33715;DHT22;20043;50.998;4.754;2022-08-19T12:20:42;24.70;99.90
33715;DHT22;20043;50.998;4.754;2022-08-19T12:23:09;24.80;99.90
33715;DHT22;20043;50.998;4.754;2022-08-19T12:25:36;24.80;99.90
33715;DHT22;20043;50.998;4.754;2022-08-19T12:28:02;24.90;99.90
33715;DHT22;20043;50.998;4.754;2022-08-19T12:30:28;25.00;99.90
33715;DHT22;20043;50.998;4.754;2022-08-19T12:32:54;25.10;99.90
33715;DHT22;20043;50.998;4.754;2022-08-19T12:35:20;25.00;99.90
33715;DHT22;20043;50.998;4.754;2022-08-19T12:37:47;25.10;99.90
33715;DHT22;20043;50.998;4.754;2022-08-19T12:40:14;25.20;99.90
33715;DHT22;20043;50.998;4.754;2022-08-19T12:42:40;25.40;99.90
33715;DHT22;20043;50.998;4.754;2022-08-19T12:45:10;25.50;99.90
33715;DHT22;20043;50.998;4.754;2022-08-19T12:47:37;25.70;99.90
33715;DHT22;20043;50.998;4.754;2022-08-19T12:50:03;25.90;99.90
33715;DHT22;20043;50.998;4.754;2022-08-19T12:52:29;26.10;99.90
33715;DHT22;20043;50.998;4.754;2022-08-19T12:54:56;26.20;99.90
33715;DHT22;20043;50.998;4.754;2022-08-19T12:57:24;26.40;99.90
33715;DHT22;20043;50.998;4.754;2022-08-19T12:59:54;26.40;99.90
33715;DHT22;20043;50.998;4.754;2022-08-19T13:02:20;26.40;99.90
33715;DHT22;20043;50.998;4.754;2022-08-19T13:04:46;26.40;99.90
33715;DHT22;20043;50.998;4.754;2022-08-19T13:07:12;26.10;99.90
33715;DHT22;20043;50.998;4.754;2022-08-19T13:09:38;26.10;99.90
33715;DHT22;20043;50.998;4.754;2022-08-19T13:12:06;26.20;99.90
33715;DHT22;20043;50.998;4.754;2022-08-19T13:14:38;26.30;99.90
33715;DHT22;20043;50.998;4.754;2022-08-19T13:17:06;26.20;99.90
33715;DHT22;20043;50.998;4.754;2022-08-19T13:19:32;26.30;99.90
33715;DHT22;20043;50.998;4.754;2022-08-19T13:21:57;26.40;99.90
33715;DHT22;20043;50.998;4.754;2022-08-19T13:24:24;26.40;99.90
33715;DHT22;20043;50.998;4.754;2022-08-19T13:26:50;26.50;99.90
33715;DHT22;20043;50.998;4.754;2022-08-19T13:29:16;26.50;99.90
33715;DHT22;20043;50.998;4.754;2022-08-19T13:32:00;26.60;99.90
33715;DHT22;20043;50.998;4.754;2022-08-19T13:34:44;26.60;99.90
33715;DHT22;20043;50.998;4.754;2022-08-19T13:37:12;26.50;99.90
33715;DHT22;20043;50.998;4.754;2022-08-19T13:39:37;26.50;99.90
33715;DHT22;20043;50.998;4.754;2022-08-19T13:42:04;26.70;99.90
33715;DHT22;20043;50.998;4.754;2022-08-19T13:44:30;26.70;99.90
33715;DHT22;20043;50.998;4.754;2022-08-19T13:47:01;26.80;99.90
33715;DHT22;20043;50.998;4.754;2022-08-19T13:49:31;27.00;99.90
33715;DHT22;20043;50.998;4.754;2022-08-19T13:51:57;27.00;99.90
33715;DHT22;20043;50.998;4.754;2022-08-19T13:54:23;27.00;99.90
33715;DHT22;20043;50.998;4.754;2022-08-19T13:56:48;27.00;99.90
33715;DHT22;20043;50.998;4.754;2022-08-19T13:59:14;26.80;99.90
33715;DHT22;20043;50.998;4.754;2022-08-19T14:01:40;26.70;99.90
33715;DHT22;20043;50.998;4.754;2022-08-19T14:04:07;26.70;99.90
33715;DHT22;20043;50.998;4.754;2022-08-19T14:06:33;26.60;99.90
33715;DHT22;20043;50.998;4.754;2022-08-19T14:08:59;26.70;99.90
33715;DHT22;20043;50.998;4.754;2022-08-19T14:11:25;26.90;99.90
33715;DHT22;20043;50.998;4.754;2022-08-19T14:13:51;27.10;99.90
33715;DHT22;20043;50.998;4.754;2022-08-19T14:16:17;27.20;99.90
33715;DHT22;20043;50.998;4.754;2022-08-19T14:18:43;27.20;99.90
33715;DHT22;20043;50.998;4.754;2022-08-19T14:21:19;27.20;99.90
33715;DHT22;20043;50.998;4.754;2022-08-19T14:23:45;27.30;99.90
33715;DHT22;20043;50.998;4.754;2022-08-19T14:26:14;27.30;99.90
33715;DHT22;20043;50.998;4.754;2022-08-19T14:28:41;27.30;99.90
33715;DHT22;20043;50.998;4.754;2022-08-19T14:31:08;27.00;99.90
33715;DHT22;20043;50.998;4.754;2022-08-19T14:33:34;26.90;99.90
33715;DHT22;20043;50.998;4.754;2022-08-19T14:36:00;26.70;99.90
33715;DHT22;20043;50.998;4.754;2022-08-19T14:38:26;26.70;99.90
33715;DHT22;20043;50.998;4.754;2022-08-19T14:40:52;26.80;99.90
33715;DHT22;20043;50.998;4.754;2022-08-19T14:43:18;26.90;99.90
33715;DHT22;20043;50.998;4.754;2022-08-19T14:45:45;26.90;99.90
33715;DHT22;20043;50.998;4.754;2022-08-19T14:48:10;26.90;99.90
33715;DHT22;20043;50.998;4.754;2022-08-19T14:50:36;26.90;99.90
33715;DHT22;20043;50.998;4.754;2022-08-19T14:53:05;26.90;99.90
33715;DHT22;20043;50.998;4.754;2022-08-19T14:55:32;26.90;99.90
33715;DHT22;20043;50.998;4.754;2022-08-19T14:57:58;26.90;99.90
33715;DHT22;20043;50.998;4.754;2022-08-19T15:00:23;27.00;99.90
33715;DHT22;20043;50.998;4.754;2022-08-19T15:02:50;27.00;99.90
33715;DHT22;20043;50.998;4.754;2022-08-19T15:05:16;27.00;99.90
33715;DHT22;20043;50.998;4.754;2022-08-19T15:07:42;27.10;99.90
33715;DHT22;20043;50.998;4.754;2022-08-19T15:10:09;27.10;99.90
33715;DHT22;20043;50.998;4.754;2022-08-19T15:12:41;27.00;99.90
33715;DHT22;20043;50.998;4.754;2022-08-19T15:15:10;26.70;99.90
33715;DHT22;20043;50.998;4.754;2022-08-19T15:17:38;26.40;99.90
33715;DHT22;20043;50.998;4.754;2022-08-19T15:20:06;26.10;99.90
33715;DHT22;20043;50.998;4.754;2022-08-19T15:22:32;25.90;99.90
33715;DHT22;20043;50.998;4.754;2022-08-19T15:24:58;25.80;99.90
33715;DHT22;20043;50.998;4.754;2022-08-19T15:27:23;25.80;99.90
33715;DHT22;20043;50.998;4.754;2022-08-19T15:29:49;25.80;99.90
33715;DHT22;20043;50.998;4.754;2022-08-19T15:32:14;25.80;99.90
33715;DHT22;20043;50.998;4.754;2022-08-19T15:34:40;25.60;99.90
33715;DHT22;20043;50.998;4.754;2022-08-19T15:37:06;25.40;99.90
33715;DHT22;20043;50.998;4.754;2022-08-19T15:39:32;25.40;99.90
33715;DHT22;20043;50.998;4.754;2022-08-19T15:41:58;25.40;99.90